createdAt,value
2022-09-24T00:01:41.170Z,7.60
2022-09-24T00:04:12.662Z,7.32
2022-09-24T00:06:42.428Z,7.97
2022-09-24T00:09:09.851Z,7.93
2022-09-24T00:11:37.293Z,8.30
2022-09-24T00:14:06.957Z,8.38
2022-09-24T00:16:34.989Z,7.95
2022-09-24T00:19:03.891Z,9.13
2022-09-24T00:21:32.503Z,9.38
2022-09-24T00:24:00.939Z,10.60
2022-09-24T00:26:47.297Z,11.93
2022-09-24T00:29:16.331Z,11.77
2022-09-24T00:31:43.723Z,12.45
2022-09-24T00:34:11.416Z,12.43
2022-09-24T00:36:39.122Z,10.60
2022-09-24T00:39:07.206Z,10.13
2022-09-24T00:41:36.912Z,9.02
2022-09-24T00:44:24.193Z,8.70
2022-09-24T00:46:51.876Z,7.95
2022-09-24T00:49:19.813Z,8.27
2022-09-24T00:51:49.583Z,7.10
2022-09-24T00:54:19.693Z,6.80
2022-09-24T00:56:47.793Z,7.47
2022-09-24T00:59:19.215Z,7.75
2022-09-24T01:01:47.912Z,7.25
2022-09-24T01:04:17.552Z,7.60
2022-09-24T01:06:45.230Z,6.95
2022-09-24T01:09:12.793Z,7.10
2022-09-24T01:11:50.708Z,7.00
2022-09-24T01:14:18.194Z,7.60
2022-09-24T01:16:57.549Z,7.55
2022-09-24T01:19:25.068Z,8.38
2022-09-24T01:21:56.341Z,8.95
2022-09-24T01:24:42.389Z,11.02
2022-09-24T01:27:28.428Z,11.55
2022-09-24T01:30:03.247Z,12.50
2022-09-24T01:35:03.109Z,13.95
2022-09-24T01:37:33.843Z,12.98
2022-09-24T01:40:02.426Z,12.75
2022-09-24T01:42:30.741Z,12.50
2022-09-24T01:44:58.409Z,11.40
2022-09-24T01:47:39.925Z,10.50
2022-09-24T01:50:21.634Z,10.43
2022-09-24T01:52:49.182Z,9.15
2022-09-24T01:55:18.874Z,9.10
2022-09-24T01:57:49.128Z,8.30
2022-09-24T02:00:18.908Z,7.75
2022-09-24T02:06:43.664Z,6.32
2022-09-24T02:09:32.935Z,6.10
2022-09-24T02:12:38.136Z,5.70
2022-09-24T02:56:01.478Z,6.45
2022-09-24T02:58:29.875Z,7.22
2022-09-24T03:00:57.385Z,6.82
2022-09-24T03:03:25.004Z,7.32
2022-09-24T03:05:53.076Z,6.45
2022-09-24T03:08:21.434Z,7.32
2022-09-24T03:10:51.312Z,7.28
2022-09-24T03:13:19.247Z,6.65
2022-09-24T03:15:47.289Z,6.85
2022-09-24T03:18:15.238Z,6.88
2022-09-24T03:20:43.609Z,7.13
2022-09-24T03:23:10.956Z,7.50
2022-09-24T03:25:38.271Z,7.63
2022-09-24T03:28:05.630Z,7.47
2022-09-24T03:30:51.709Z,7.00
2022-09-24T03:33:19.087Z,7.25
2022-09-24T03:35:46.650Z,7.68
2022-09-24T03:38:14.142Z,6.80
2022-09-24T03:40:41.464Z,5.95
2022-09-24T03:43:08.959Z,5.68
2022-09-24T03:45:36.317Z,5.13
2022-09-24T03:48:06.689Z,5.78
2022-09-24T03:50:37.371Z,5.55
2022-09-24T03:53:04.815Z,5.88
2022-09-24T03:55:32.137Z,5.07
2022-09-24T03:57:59.590Z,4.18
2022-09-24T04:00:27.356Z,3.83
2022-09-24T04:02:54.848Z,2.97
2022-09-24T04:05:22.494Z,2.70
2022-09-24T04:07:49.828Z,2.83
2022-09-24T04:10:17.228Z,2.60
2022-09-24T04:12:45.995Z,1.67
2022-09-24T04:15:13.370Z,1.35
2022-09-24T04:17:40.888Z,1.65
2022-09-24T04:20:09.200Z,1.60
2022-09-24T04:22:36.494Z,1.27
2022-09-24T04:25:03.851Z,1.67
2022-09-24T04:27:31.150Z,1.40
2022-09-24T04:29:58.412Z,1.40
2022-09-24T04:32:25.802Z,1.30
2022-09-24T04:34:53.078Z,1.50
2022-09-24T04:37:20.435Z,1.63
2022-09-24T04:39:47.909Z,1.58
2022-09-24T04:42:19.133Z,1.30
2022-09-24T04:44:47.349Z,1.58
2022-09-24T04:47:15.582Z,1.55
2022-09-24T04:49:45.141Z,1.23
2022-09-24T04:52:15.138Z,1.10
2022-09-24T04:54:45.153Z,1.30
2022-09-24T04:57:12.609Z,1.45
2022-09-24T04:59:40.001Z,1.23
2022-09-24T05:02:09.753Z,1.67
2022-09-24T05:04:37.879Z,1.20
2022-09-24T05:07:05.358Z,1.42
2022-09-24T05:09:32.724Z,1.30
2022-09-24T05:12:00.323Z,1.38
2022-09-24T05:14:27.675Z,1.27
2022-09-24T05:16:55.028Z,1.60
2022-09-24T05:19:22.422Z,1.40
2022-09-24T05:21:50.203Z,1.63
2022-09-24T05:24:17.553Z,1.35
2022-09-24T05:27:03.350Z,1.33
2022-09-24T05:29:30.699Z,1.50
2022-09-24T05:31:58.024Z,1.42
2022-09-24T05:34:25.284Z,1.52
2022-09-24T05:36:52.540Z,1.75
2022-09-24T05:39:19.808Z,1.58
2022-09-24T05:41:47.342Z,1.70
2022-09-24T05:44:14.686Z,1.50
2022-09-24T05:46:41.980Z,1.40
2022-09-24T05:49:09.413Z,1.45
2022-09-24T05:51:36.670Z,1.42
2022-09-24T05:54:04.079Z,1.50
2022-09-24T05:56:31.323Z,1.40
2022-09-24T05:59:00.927Z,1.75
2022-09-24T06:01:32.129Z,1.65
2022-09-24T06:04:02.495Z,1.52
2022-09-24T06:06:32.232Z,1.85
2022-09-24T06:08:59.534Z,2.13
2022-09-24T06:11:29.893Z,2.30
2022-09-24T06:13:57.168Z,2.78
2022-09-24T06:16:24.500Z,3.05
2022-09-24T06:18:52.055Z,3.65
2022-09-24T06:21:19.288Z,3.80
2022-09-24T06:23:46.813Z,5.38
2022-09-24T06:26:14.660Z,6.70
2022-09-24T06:28:42.271Z,7.60
2022-09-24T06:31:11.888Z,7.85
2022-09-24T06:33:40.579Z,7.60
2022-09-24T06:36:09.063Z,7.88
2022-09-24T06:41:59.628Z,8.52
2022-09-24T06:44:34.690Z,8.80
2022-09-24T06:48:03.214Z,8.82
2022-09-24T06:51:02.777Z,7.85
2022-09-24T06:54:05.755Z,8.07
2022-09-24T06:59:37.669Z,6.13
2022-09-24T07:02:22.924Z,6.00
2022-09-24T07:05:19.406Z,5.07
2022-09-24T07:08:12.736Z,4.18
2022-09-24T07:11:11.050Z,4.03
2022-09-24T07:13:55.015Z,4.05
2022-09-24T07:17:09.334Z,4.65
2022-09-24T07:19:54.454Z,5.22
2022-09-24T07:22:28.193Z,5.20
2022-09-24T07:25:03.978Z,6.50
2022-09-24T07:30:41.466Z,6.28
2022-09-24T07:33:09.227Z,6.20
2022-09-24T07:35:39.654Z,6.65
2022-09-24T07:38:11.769Z,6.72
2022-09-24T07:40:39.314Z,5.45
2022-09-24T07:43:12.339Z,5.22
2022-09-24T07:46:02.491Z,5.28
2022-09-24T07:48:29.938Z,4.88
2022-09-24T07:50:57.274Z,4.40
2022-09-24T07:53:24.713Z,4.03
2022-09-24T07:55:52.711Z,3.85
2022-09-24T07:58:19.988Z,3.53
2022-09-24T08:00:47.270Z,2.75
2022-09-24T08:03:15.035Z,2.25
2022-09-24T08:05:45.645Z,2.35
2022-09-24T08:08:13.741Z,1.60
2022-09-24T08:10:42.133Z,1.45
2022-09-24T08:13:09.567Z,1.90
2022-09-24T08:15:36.913Z,1.50
2022-09-24T08:18:05.087Z,1.60
2022-09-24T08:20:37.580Z,1.60
2022-09-24T08:23:05.780Z,1.45
2022-09-24T08:25:33.132Z,1.55
2022-09-24T08:28:06.917Z,1.30
2022-09-24T08:30:35.107Z,1.60
2022-09-24T08:33:04.972Z,1.20
2022-09-24T08:35:32.666Z,1.35
2022-09-24T08:38:01.385Z,1.30
2022-09-24T08:40:30.592Z,1.48
2022-09-24T08:43:07.921Z,1.10
2022-09-24T08:45:59.242Z,1.50
2022-09-24T08:48:27.505Z,1.45
2022-09-24T08:51:01.435Z,1.60
2022-09-24T08:53:41.334Z,1.50
2022-09-24T08:56:09.423Z,1.83
2022-09-24T08:58:48.299Z,1.73
2022-09-24T09:01:18.388Z,1.48
2022-09-24T09:03:49.009Z,2.00
2022-09-24T09:06:22.249Z,1.83
2022-09-24T09:09:12.348Z,1.30
2022-09-24T09:11:40.809Z,1.85
2022-09-24T09:14:30.609Z,1.58
2022-09-24T09:17:03.351Z,1.75
2022-09-24T09:19:40.948Z,1.40
2022-09-24T09:22:13.820Z,1.42
2022-09-24T09:24:44.467Z,1.38
2022-09-24T09:27:14.960Z,1.50
2022-09-24T09:29:46.591Z,1.55
2022-09-24T09:32:21.638Z,1.50
2022-09-24T09:34:49.228Z,1.30
2022-09-24T09:37:28.359Z,1.20
2022-09-24T09:40:13.869Z,1.40
2022-09-24T09:42:42.157Z,1.50
2022-09-24T09:45:28.383Z,1.35
2022-09-24T09:47:57.140Z,1.50
2022-09-24T09:50:36.939Z,1.42
2022-09-24T09:53:05.683Z,1.55
2022-09-24T09:55:37.410Z,1.33
2022-09-24T09:58:12.335Z,1.40
2022-09-24T10:00:39.716Z,1.55
2022-09-24T10:03:07.427Z,1.95
2022-09-24T10:05:35.701Z,1.33
2022-09-24T10:08:03.414Z,1.52
2022-09-24T10:10:33.710Z,3.17
2022-09-24T10:13:14.252Z,1.52
2022-09-24T10:16:01.242Z,1.52
2022-09-24T10:18:47.346Z,1.48
2022-09-24T10:21:16.248Z,1.50
2022-09-24T10:23:44.512Z,2.28
2022-09-24T10:26:22.035Z,1.20
2022-09-24T10:29:09.929Z,1.80
2022-09-24T10:31:39.798Z,1.73
2022-09-24T10:34:33.085Z,1.30
2022-09-24T10:37:20.618Z,1.48
2022-09-24T10:40:00.496Z,1.23
2022-09-24T10:42:29.473Z,1.33
2022-09-24T10:45:01.121Z,1.50
2022-09-24T10:47:43.014Z,1.30
2022-09-24T10:50:29.394Z,1.45
2022-09-24T10:53:07.661Z,1.70
2022-09-24T10:55:50.206Z,1.00
2022-09-24T10:58:34.731Z,1.20
2022-09-24T11:01:28.697Z,1.80
2022-09-24T11:04:09.957Z,1.40
2022-09-24T11:07:18.100Z,1.30
2022-09-24T11:10:10.321Z,1.35
2022-09-24T11:12:57.373Z,1.30
2022-09-24T11:15:45.492Z,1.33
2022-09-24T11:18:38.096Z,1.23
2022-09-24T11:21:19.699Z,1.30
2022-09-24T11:24:06.737Z,1.38
2022-09-24T11:26:48.563Z,1.30
2022-09-24T11:29:16.647Z,1.08
2022-09-24T11:32:00.201Z,1.23
2022-09-24T11:35:23.471Z,1.55
2022-09-24T11:38:32.764Z,1.20
2022-09-24T11:41:28.113Z,1.52
2022-09-24T11:44:22.836Z,1.42
2022-09-24T11:47:17.135Z,1.35
2022-09-24T11:49:55.383Z,1.80
2022-09-24T11:52:38.389Z,1.40
2022-09-24T11:55:23.843Z,1.38
2022-09-24T11:57:59.485Z,1.10
2022-09-24T12:00:32.205Z,1.10
2022-09-24T12:03:07.901Z,1.20
2022-09-24T12:05:45.779Z,1.67
2022-09-24T12:08:15.079Z,1.10
2022-09-24T12:11:09.232Z,1.10
2022-09-24T12:13:41.860Z,1.10
2022-09-24T12:16:14.663Z,1.17
2022-09-24T12:19:00.250Z,1.30
2022-09-24T12:21:34.631Z,1.42
2022-09-24T12:24:14.032Z,1.33
2022-09-24T12:26:43.026Z,1.55
2022-09-24T12:29:41.998Z,1.42
2022-09-24T12:32:48.579Z,2.58
2022-09-24T12:35:39.724Z,1.20
2022-09-24T12:38:20.495Z,1.10
2022-09-24T12:41:33.074Z,1.10
2022-09-24T12:43:59.995Z,1.20
2022-09-24T12:46:39.449Z,1.30
2022-09-24T12:49:24.823Z,1.20
2022-09-24T12:52:00.568Z,1.10
2022-09-24T12:54:33.554Z,1.23
2022-09-24T12:57:24.434Z,1.25
2022-09-24T12:59:56.606Z,1.40
2022-09-24T13:02:30.079Z,1.02
2022-09-24T13:05:02.907Z,1.27
2022-09-24T13:07:40.835Z,1.30
2022-09-24T13:10:16.760Z,1.55
2022-09-24T13:12:45.996Z,1.00
2022-09-24T13:15:30.036Z,1.20
2022-09-24T13:18:19.848Z,1.52
2022-09-24T13:21:00.225Z,1.05
2022-09-24T13:23:29.401Z,1.42
2022-09-24T13:26:00.056Z,1.33
2022-09-24T13:28:38.294Z,1.45
2022-09-24T13:31:22.448Z,1.33
2022-09-24T13:34:22.025Z,1.40
2022-09-24T13:37:00.805Z,1.38
2022-09-24T13:39:42.447Z,1.67
2022-09-24T13:42:20.931Z,1.35
2022-09-24T13:44:52.937Z,1.20
2022-09-24T13:47:27.643Z,1.55
2022-09-24T13:53:08.391Z,1.55
2022-09-24T13:55:45.145Z,1.15
2022-09-24T13:58:28.305Z,1.52
2022-09-24T14:00:55.749Z,1.52
2022-09-24T14:03:26.746Z,1.48
2022-09-24T14:05:54.399Z,1.38
2022-09-24T14:08:24.383Z,1.45
2022-09-24T14:10:51.518Z,2.22
2022-09-24T14:13:23.640Z,1.30
2022-09-24T14:15:56.058Z,1.30
2022-09-24T14:18:24.330Z,1.70
2022-09-24T14:21:26.985Z,1.65
2022-09-24T14:24:15.883Z,1.30
2022-09-24T14:27:02.987Z,1.15
2022-09-24T14:29:49.832Z,1.30
2022-09-24T14:32:22.969Z,1.55
2022-09-24T14:34:53.965Z,1.33
2022-09-24T14:37:37.841Z,1.10
2022-09-24T14:40:12.496Z,1.35
2022-09-24T14:45:40.525Z,1.13
2022-09-24T14:48:25.634Z,1.48
2022-09-24T14:50:52.776Z,1.23
2022-09-24T14:53:36.177Z,1.02
2022-09-24T14:56:26.463Z,0.90
2022-09-24T14:58:53.426Z,0.90
2022-09-24T15:01:24.047Z,1.73
2022-09-24T15:03:54.572Z,1.63
2022-09-24T15:06:28.956Z,1.10
2022-09-24T15:09:06.354Z,1.40
2022-09-24T15:11:37.752Z,1.60
2022-09-24T15:14:16.270Z,1.00
2022-09-24T15:16:44.905Z,1.30
2022-09-24T15:19:30.908Z,1.38
2022-09-24T15:21:58.755Z,1.10
2022-09-24T15:24:26.004Z,1.10
2022-09-24T15:27:21.649Z,1.30
2022-09-24T15:32:19.820Z,1.20
2022-09-24T15:34:47.616Z,1.23
2022-09-24T15:37:18.860Z,2.58
2022-09-24T15:39:49.439Z,1.30
2022-09-24T15:42:22.072Z,1.13
2022-09-24T15:44:50.878Z,1.52
2022-09-24T15:47:18.753Z,1.40
2022-09-24T15:49:45.768Z,1.45
2022-09-24T15:52:32.961Z,1.48
2022-09-24T15:55:02.683Z,1.33
2022-09-24T15:57:30.206Z,1.30
2022-09-24T15:59:57.069Z,1.65
2022-09-24T16:02:28.883Z,1.15
2022-09-24T16:05:00.124Z,0.98
2022-09-24T16:07:29.866Z,1.05
2022-09-24T16:09:56.678Z,1.48
2022-09-24T16:12:27.976Z,1.33
2022-09-24T16:14:59.434Z,1.40
2022-09-24T16:17:27.825Z,1.10
2022-09-24T16:19:54.749Z,1.40
2022-09-24T16:22:21.998Z,1.27
2022-09-24T16:24:48.898Z,1.42
2022-09-24T16:27:18.675Z,1.88
2022-09-24T16:29:45.611Z,1.52
2022-09-24T16:32:13.847Z,1.13
2022-09-24T16:34:41.546Z,1.63
2022-09-24T16:37:09.218Z,1.20
2022-09-24T16:39:36.108Z,1.30
2022-09-24T16:42:03.340Z,1.30
2022-09-24T16:44:30.223Z,1.58
2022-09-24T16:46:57.179Z,1.35
2022-09-24T16:49:24.225Z,1.35
2022-09-24T16:51:51.201Z,1.77
2022-09-24T16:54:19.796Z,1.30
2022-09-24T16:56:50.369Z,1.27
2022-09-24T16:59:18.201Z,1.15
2022-09-24T17:01:45.527Z,2.10
2022-09-24T17:04:13.085Z,1.45
2022-09-24T17:06:40.363Z,1.23
2022-09-24T17:09:26.135Z,1.13
2022-09-24T17:11:53.003Z,1.10
2022-09-24T17:14:19.929Z,1.23
2022-09-24T17:16:46.924Z,1.15
2022-09-24T17:19:14.058Z,1.35
2022-09-24T17:21:42.694Z,1.00
2022-09-24T17:24:10.232Z,1.23
2022-09-24T17:26:38.121Z,1.30
2022-09-24T17:29:05.247Z,1.23
2022-09-24T17:31:32.803Z,1.20
2022-09-24T17:34:02.383Z,2.22
2022-09-24T17:36:30.560Z,1.15
2022-09-24T17:38:59.281Z,1.45
2022-09-24T17:41:27.928Z,1.10
2022-09-24T17:43:59.548Z,1.23
2022-09-24T17:46:29.146Z,1.85
2022-09-24T17:48:58.281Z,1.30
2022-09-24T17:51:25.162Z,1.00
2022-09-24T17:53:53.865Z,1.10
2022-09-24T17:56:25.361Z,1.33
2022-09-24T17:58:54.364Z,1.17
2022-09-24T18:01:28.375Z,0.90
2022-09-24T18:03:59.316Z,1.15
2022-09-24T18:06:32.494Z,1.23
2022-09-24T18:09:01.370Z,1.30
2022-09-24T18:12:13.472Z,1.38
2022-09-24T18:14:45.690Z,1.30
2022-09-24T18:17:12.581Z,1.08
2022-09-24T18:19:39.511Z,1.35
2022-09-24T18:22:09.286Z,1.15
2022-09-24T18:24:36.163Z,1.50
2022-09-24T18:27:03.446Z,1.80
2022-09-24T18:29:30.645Z,1.00
2022-09-24T18:31:57.603Z,1.10
2022-09-24T18:34:25.155Z,2.22
2022-09-24T18:36:52.062Z,1.98
2022-09-24T18:39:25.342Z,1.70
2022-09-24T18:41:53.188Z,1.50
2022-09-24T18:44:20.446Z,1.40
2022-09-24T18:46:52.173Z,1.10
2022-09-24T18:49:19.673Z,1.30
2022-09-24T18:51:47.027Z,1.27
2022-09-24T18:54:14.900Z,1.25
2022-09-24T18:56:43.515Z,1.23
2022-09-24T18:59:15.981Z,1.67
2022-09-24T19:01:44.102Z,1.23
2022-09-24T19:04:12.519Z,1.33
2022-09-24T19:06:42.510Z,1.48
2022-09-24T19:09:13.955Z,1.45
2022-09-24T19:11:44.170Z,1.40
2022-09-24T19:14:18.051Z,1.40
2022-09-24T19:16:45.901Z,1.30
2022-09-24T19:19:13.081Z,1.50
2022-09-24T19:21:41.397Z,1.30
2022-09-24T19:24:09.793Z,1.67
2022-09-24T19:26:37.222Z,1.95
2022-09-24T19:29:05.153Z,1.80
2022-09-24T19:31:38.889Z,1.40
2022-09-24T19:34:27.442Z,1.40
2022-09-24T19:37:03.795Z,1.50
2022-09-24T19:39:30.779Z,1.45
2022-09-24T19:41:57.604Z,1.35
2022-09-24T19:44:24.508Z,1.52
2022-09-24T19:46:51.526Z,1.80
2022-09-24T19:49:20.378Z,1.42
2022-09-24T19:51:47.237Z,1.58
2022-09-24T19:54:14.281Z,1.38
2022-09-24T19:56:44.743Z,1.60
2022-09-24T19:59:13.326Z,1.65
2022-09-24T20:01:40.592Z,1.83
2022-09-24T20:04:07.930Z,1.85
2022-09-24T20:06:37.063Z,1.70
2022-09-24T20:09:05.125Z,1.33
2022-09-24T20:11:32.980Z,1.80
2022-09-24T20:14:01.337Z,1.33
2022-09-24T20:16:34.619Z,1.50
2022-09-24T20:19:02.556Z,1.40
2022-09-24T20:21:34.633Z,1.70
2022-09-24T20:24:03.779Z,1.40
2022-09-24T20:26:49.496Z,1.42
2022-09-24T20:29:19.622Z,1.45
2022-09-24T20:31:52.125Z,1.35
2022-09-24T20:34:33.428Z,1.30
2022-09-24T20:37:01.823Z,1.50
2022-09-24T20:39:29.711Z,1.55
2022-09-24T20:41:58.358Z,1.38
2022-09-24T20:44:29.081Z,1.40
2022-09-24T20:47:56.236Z,1.15
2022-09-24T20:50:37.222Z,1.60
2022-09-24T21:08:10.343Z,1.10
2022-09-24T21:14:01.674Z,1.30
2022-09-24T21:16:38.325Z,1.30
2022-09-24T21:19:13.816Z,1.70
2022-09-24T21:21:42.075Z,1.20
2022-09-24T21:24:31.388Z,1.15
2022-09-24T21:27:02.001Z,1.05
2022-09-24T21:29:29.044Z,1.58
2022-09-24T21:31:57.699Z,1.75
2022-09-24T21:34:25.762Z,1.50
2022-09-24T21:37:17.644Z,1.52
2022-09-24T21:43:54.080Z,1.10
2022-09-24T22:27:48.286Z,1.20
2022-09-24T22:30:15.381Z,1.58
2022-09-24T22:32:42.413Z,1.23
2022-09-24T22:35:29.683Z,1.42
2022-09-24T22:37:57.135Z,1.55
2022-09-24T22:40:26.698Z,1.00
2022-09-24T22:42:53.710Z,1.10
2022-09-24T22:45:22.140Z,1.73
2022-09-24T22:47:49.063Z,1.30
2022-09-24T22:50:16.062Z,1.73
2022-09-24T22:52:45.952Z,1.65
2022-09-24T22:55:12.930Z,1.38
2022-09-24T22:57:39.902Z,1.55
2022-09-24T23:00:07.629Z,1.55
2022-09-24T23:02:35.363Z,0.98
2022-09-24T23:05:02.293Z,1.23
2022-09-24T23:07:29.271Z,1.45
2022-09-24T23:09:56.113Z,1.10
2022-09-24T23:12:23.282Z,1.23
2022-09-24T23:14:55.143Z,1.27
2022-09-24T23:17:22.294Z,1.10
2022-09-24T23:19:49.389Z,1.20
2022-09-24T23:22:17.469Z,1.02
2022-09-24T23:24:44.764Z,1.20
2022-09-24T23:27:11.947Z,1.60
2022-09-24T23:29:39.294Z,1.00
2022-09-24T23:32:06.475Z,1.67
2022-09-24T23:34:33.592Z,1.30
2022-09-24T23:37:00.979Z,1.40
2022-09-24T23:39:28.269Z,0.95
2022-09-24T23:41:55.654Z,2.17
2022-09-24T23:44:22.676Z,1.63
2022-09-24T23:46:49.636Z,1.17
2022-09-24T23:49:16.596Z,1.33
2022-09-24T23:51:44.142Z,1.10
2022-09-24T23:54:11.033Z,1.20
2022-09-24T23:56:38.390Z,1.20
2022-09-24T23:59:05.511Z,1.25
